createdAt,value
2024-01-20T00:10:45.036Z,-0.13
2024-01-20T00:25:47.208Z,-0.16
2024-01-20T00:40:49.361Z,-0.17
2024-01-20T00:55:51.414Z,-0.29
2024-01-20T01:10:53.450Z,-0.28
2024-01-20T01:25:55.664Z,-0.17
2024-01-20T01:40:57.837Z,-0.32
2024-01-20T01:55:59.852Z,-0.28
2024-01-20T02:11:01.970Z,-0.44
2024-01-20T02:26:04.026Z,-0.23
2024-01-20T02:41:06.139Z,-0.33
2024-01-20T02:56:08.417Z,-0.51
2024-01-20T03:11:10.495Z,-0.31
2024-01-20T03:26:12.704Z,-0.52
2024-01-20T03:41:14.794Z,-1.09
2024-01-20T03:56:17.032Z,-0.71
2024-01-20T04:11:19.019Z,-1.45
2024-01-20T04:26:20.964Z,-2.22
2024-01-20T04:41:23.051Z,-2.03
2024-01-20T04:56:25.040Z,-2.7
2024-01-20T05:11:27.120Z,-2.46
2024-01-20T05:26:29.883Z,-1.1
2024-01-20T05:41:32.631Z,-1.01
2024-01-20T05:56:34.673Z,-0.53
2024-01-20T06:11:36.646Z,-0.85
2024-01-20T06:26:38.674Z,-0.73
2024-01-20T06:41:40.798Z,-1.06
2024-01-20T06:56:42.861Z,-1.42
2024-01-20T07:11:44.863Z,-1.28
2024-01-20T07:26:46.875Z,-0.72
2024-01-20T07:41:48.898Z,-1.7
2024-01-20T07:56:50.907Z,-0.92
2024-01-20T08:11:53.052Z,-1.92
2024-01-20T08:26:55.079Z,-2.4
2024-01-20T08:41:59.007Z,-2.5
2024-01-20T08:57:01.132Z,-1.92
2024-01-20T09:12:03.393Z,-2.62
2024-01-20T09:27:05.433Z,-2.69
2024-01-20T09:42:07.594Z,-2.35
2024-01-20T09:57:09.805Z,-2.49
2024-01-20T10:12:11.905Z,-2.62
2024-01-20T10:27:13.966Z,-2.46
2024-01-20T10:42:16.082Z,-1.27
2024-01-20T10:57:18.370Z,-2.4
2024-01-20T11:12:20.408Z,-1.64
2024-01-20T11:27:22.630Z,-2.48
2024-01-20T11:42:24.636Z,-2.83
2024-01-20T11:57:26.784Z,-2.45
2024-01-20T12:12:28.874Z,-1.02
2024-01-20T12:27:30.967Z,-1.78
2024-01-20T12:42:33.274Z,-0.85
2024-01-20T12:57:35.482Z,-2.34
2024-01-20T13:12:37.518Z,-2.26
2024-01-20T13:27:40.150Z,-2.26
2024-01-20T13:42:43.736Z,-1.41
2024-01-20T13:57:46.275Z,-2.37
2024-01-20T14:12:48.355Z,-1.5
2024-01-20T14:27:50.366Z,-1.51
2024-01-20T14:42:52.598Z,-1.24
2024-01-20T14:57:54.679Z,-1.47
2024-01-20T15:12:56.735Z,-1.88
2024-01-20T15:27:58.774Z,-2.26
2024-01-20T15:43:00.741Z,-1.67
2024-01-20T15:58:02.658Z,-1.35
2024-01-20T16:13:12.718Z,-1.98
2024-01-20T16:28:16.335Z,-1.58
2024-01-20T16:43:18.306Z,-1.39
2024-01-20T16:58:20.465Z,-0.88
2024-01-20T17:13:22.460Z,-2.07
2024-01-20T17:28:24.506Z,-1.4
2024-01-20T17:43:26.682Z,-1.05
2024-01-20T17:58:28.714Z,-1.35
2024-01-20T18:13:31.087Z,-1.85
2024-01-20T18:28:33.296Z,-1.78
2024-01-20T18:43:35.592Z,-0.86
2024-01-20T18:58:37.600Z,-0.77
2024-01-20T19:13:39.761Z,0.53
2024-01-20T19:28:41.777Z,0.02
2024-01-20T19:43:43.844Z,1.1
2024-01-20T19:58:45.995Z,1.07
2024-01-20T20:13:47.998Z,1.15
2024-01-20T20:28:50.114Z,-0.8
2024-01-20T20:43:52.300Z,0.55
2024-01-20T20:58:54.478Z,1.65
2024-01-20T21:13:56.605Z,1.4
2024-01-20T21:28:58.756Z,1.54
2024-01-20T21:44:01.662Z,1.64
2024-01-20T21:59:03.821Z,1.81
2024-01-20T22:14:05.820Z,1.51
2024-01-20T22:29:15.279Z,1.63
2024-01-20T22:44:26.143Z,1.82
2024-01-20T22:59:28.140Z,1.95
2024-01-20T23:14:30.177Z,1.86
2024-01-20T23:29:32.214Z,1.02
2024-01-20T23:44:34.225Z,0.03
2024-01-20T23:59:36.236Z,-0.36
